Terminal Aerodrome Forecast
Issued by NWS Newport/Morehead City, NC

Home | Current Version | Previous Version | Text Only | Print | Product List | Glossary On
Versions: 1 2 3 4 5 6 7 8 9 10 11 12 13 14
428
FTUS42 KMHX 202336
TAFEWN
TAF
KEWN 202336Z 2100/2124 VRB04KT 6SM SHRA SCT007 OVC040
     FM210200 VRB04KT 6SM SHRA SCT007 OVC020
     FM211200 23005KT 6SM -SHRA SCT020 OVC030
     FM211500 22008KT P6SM SCT025 OVC040=

USA.gov is the U.S. government's official web portal to all federal, state and local government web resources and services.